Terminal Aerodrome Forecast
Issued by NWS

Home | Current Version | Previous Version | Graphics & Text | Print | Product List | Glossary On
Versions: 1 2 3 4 5 6 7 8 9 10 11 12 13 14 15 16 17 18 19
000
FTUS43 KTOP 131100
TAFMHK
TAF
KMHK 131133Z 1312/1412 11010KT P6SM SCT025 BKN035
     FM131700 11010KT P6SM SHRA VCTS BKN040CB
     FM131900 35017G27KT 4SM TSRA OVC012CB
     FM132200 35024G35KT 4SM -DZ OVC015=

USA.gov is the U.S. government's official web portal to all federal, state and local government web resources and services.